Main page
METAR-TAF:

METAR-TAF

Airports :

Istanbul Atatürk Airport

Istanbul Atatürk, Turkey

latitude: 40-58N, longitude: 028-49E, elevation: 48 m

Current weather observation

The report was made 30 minutes ago, at 19:50 UTC
Wind 6 kt from the East, varying between East and Southeast
Temperature 14°C
Humidity 67%
Pressure 1018 hPa
Visibility 10 km or more
Few clouds at a height of 4000 ft
Broken clouds at a height of 8000 ft

METAR: LTBA 151950Z 10006KT 080V140 9999 FEW040 BKN080 14/08 Q1018 NOSIG

Time: 23:20 (20:20 UTC)

Forecast

The report was made 3 hours and 40 minutes ago, at 16:40 UTC
Forecast valid from 15 at 18 UTC to 16 at 24 UTC
Wind 8 kt from the East
Visibility 10 km or more
no clouds below 1500 m and no cumulonimbus
Becoming
from 16 at 21 UTC to 16 at 24 UTC
Wind 12 kt from the North
Scattered clouds at a height of 4000 ft
Broken clouds at a height of 10000 ft

TAF: LTBA 151640Z 1518/1624 10008KT CAVOK BECMG 1621/1624 01012KT SCT040 BKN100

Weather observations and forecasts of more than 4000 airports (METAR and TAF reports).

The available stations are represented by yellow and red dots on the map.

Hover mouse over dot to see the name of the station.

Then click to see weather observations and forecasts.

To change the map : click on the green buttons with a black cross to zoom in, on the green button with a dash to zoom out, or on the green arrows for adjacent maps.


METAR-TAF: